createdAt,value
2023-03-16T00:00:56.878Z,4.27
2023-03-16T00:01:46.559Z,4.47
2023-03-16T00:02:27.040Z,4.43
2023-03-16T00:03:20.663Z,4.40
2023-03-16T00:04:06.432Z,4.80
2023-03-16T00:05:26.080Z,4.30
2023-03-16T00:06:43.490Z,4.67
2023-03-16T00:07:23.522Z,4.57
2023-03-16T00:08:04.198Z,4.40
2023-03-16T00:08:44.887Z,4.27
2023-03-16T00:09:27.273Z,4.13
2023-03-16T00:10:12.644Z,3.97
2023-03-16T00:11:34.614Z,4.20
2023-03-16T00:12:38.368Z,4.27
2023-03-16T00:13:55.578Z,4.53
2023-03-16T00:14:35.849Z,4.07
2023-03-16T00:15:59.141Z,4.00
2023-03-16T00:16:40.610Z,3.63
2023-03-16T00:17:21.698Z,3.73
2023-03-16T00:18:00.623Z,3.77
2023-03-16T00:18:39.538Z,3.53
2023-03-16T00:19:20.040Z,3.63
2023-03-16T00:20:06.263Z,3.93
2023-03-16T00:20:55.519Z,3.87
2023-03-16T00:21:35.366Z,3.63
2023-03-16T00:22:16.383Z,4.17
2023-03-16T00:22:55.839Z,4.23
2023-03-16T00:23:36.611Z,4.10
2023-03-16T00:24:18.706Z,4.03
2023-03-16T00:24:58.780Z,3.90
2023-03-16T00:25:38.232Z,3.63
2023-03-16T00:26:19.592Z,4.00
2023-03-16T00:26:59.619Z,3.97
2023-03-16T00:28:18.609Z,3.73
2023-03-16T00:29:36.749Z,4.17
2023-03-16T00:30:23.944Z,3.97
2023-03-16T00:31:07.315Z,4.00
2023-03-16T00:32:34.783Z,4.47
2023-03-16T00:33:17.204Z,4.47
2023-03-16T00:33:56.543Z,3.87
2023-03-16T00:34:36.522Z,3.97
2023-03-16T00:35:16.652Z,3.97
2023-03-16T00:36:05.054Z,4.27
2023-03-16T00:36:45.159Z,4.47
2023-03-16T00:37:27.857Z,4.17
2023-03-16T00:38:08.529Z,4.00
2023-03-16T00:38:49.280Z,4.63
2023-03-16T00:39:52.339Z,4.47
2023-03-16T00:40:33.983Z,4.27
2023-03-16T00:41:16.112Z,4.73
2023-03-16T00:41:58.507Z,4.73
2023-03-16T00:42:38.642Z,4.47
2023-03-16T00:43:18.868Z,4.83
2023-03-16T00:44:22.247Z,4.27
2023-03-16T00:45:40.347Z,5.03
2023-03-16T00:46:26.572Z,4.67
2023-03-16T00:47:06.704Z,4.67
2023-03-16T00:47:46.569Z,5.00
2023-03-16T00:48:26.695Z,4.73
2023-03-16T00:49:05.650Z,5.20
2023-03-16T00:49:44.867Z,4.50
2023-03-16T00:50:24.668Z,4.67
2023-03-16T00:51:06.620Z,4.93
2023-03-16T00:51:46.848Z,4.90
2023-03-16T00:53:15.379Z,5.30
2023-03-16T00:53:54.529Z,5.27
2023-03-16T00:54:33.630Z,5.20
2023-03-16T00:55:13.183Z,5.03
2023-03-16T00:55:53.639Z,5.07
2023-03-16T00:56:34.229Z,4.53
2023-03-16T00:57:19.041Z,4.70
2023-03-16T00:58:05.131Z,5.17
2023-03-16T00:59:23.337Z,5.13
2023-03-16T01:00:13.036Z,5.37
2023-03-16T01:00:55.393Z,4.90
2023-03-16T01:01:35.029Z,5.13
2023-03-16T01:02:16.814Z,4.73
2023-03-16T01:02:58.695Z,5.03
2023-03-16T01:03:39.541Z,5.13
2023-03-16T01:04:20.175Z,5.27
2023-03-16T01:04:59.634Z,5.20
2023-03-16T01:05:41.025Z,4.93
2023-03-16T01:06:22.212Z,5.13
2023-03-16T01:07:41.544Z,5.17
2023-03-16T01:08:22.833Z,5.27
2023-03-16T01:09:02.186Z,5.17
2023-03-16T01:09:44.968Z,4.50
2023-03-16T01:10:26.522Z,4.70
2023-03-16T01:11:10.573Z,5.03
2023-03-16T01:11:53.643Z,4.90
2023-03-16T01:12:34.329Z,5.17
2023-03-16T01:13:13.622Z,4.97
2023-03-16T01:13:55.624Z,4.87
2023-03-16T01:14:34.135Z,5.23
2023-03-16T01:15:15.769Z,5.20
2023-03-16T01:16:34.816Z,4.87
2023-03-16T01:17:18.128Z,5.20
2023-03-16T01:17:59.236Z,4.90
2023-03-16T01:18:41.663Z,5.03
2023-03-16T01:19:45.664Z,4.77
2023-03-16T01:21:15.928Z,4.87
2023-03-16T01:21:56.284Z,4.53
2023-03-16T01:22:35.606Z,4.47
2023-03-16T01:23:16.034Z,4.83
2023-03-16T01:23:58.657Z,4.70
2023-03-16T01:24:40.159Z,5.17
2023-03-16T01:25:21.631Z,4.87
2023-03-16T01:26:03.248Z,4.40
2023-03-16T01:26:45.557Z,4.83
2023-03-16T01:27:59.255Z,5.53
2023-03-16T01:28:39.972Z,4.97
2023-03-16T01:30:23.284Z,4.80
2023-03-16T01:31:08.084Z,5.00
2023-03-16T01:31:52.809Z,4.73
2023-03-16T01:32:34.613Z,4.73
2023-03-16T01:33:14.322Z,4.87
2023-03-16T01:33:56.571Z,4.53
2023-03-16T01:34:36.348Z,5.00
2023-03-16T01:35:16.718Z,5.23
2023-03-16T01:35:57.449Z,4.90
2023-03-16T01:36:39.174Z,4.47
2023-03-16T01:37:56.544Z,4.97
2023-03-16T01:38:38.300Z,4.90
2023-03-16T01:39:18.684Z,4.73
2023-03-16T01:40:39.644Z,5.17
2023-03-16T01:41:19.434Z,5.13
2023-03-16T01:41:59.263Z,5.03
2023-03-16T01:42:59.090Z,4.87
2023-03-16T01:43:41.400Z,4.93
2023-03-16T01:44:35.255Z,5.00
2023-03-16T01:45:53.206Z,4.83
2023-03-16T01:46:33.279Z,4.63
2023-03-16T01:47:14.729Z,4.43
2023-03-16T01:47:54.604Z,4.90
2023-03-16T01:49:20.504Z,4.80
2023-03-16T01:49:59.758Z,4.97
2023-03-16T01:50:42.331Z,4.90
2023-03-16T01:51:46.159Z,5.13
2023-03-16T01:52:34.218Z,5.07
2023-03-16T01:53:15.248Z,4.80
2023-03-16T01:54:22.086Z,4.87
2023-03-16T01:55:13.225Z,5.03
2023-03-16T01:55:55.452Z,5.13
2023-03-16T01:56:51.976Z,5.00
2023-03-16T01:57:39.363Z,5.23
2023-03-16T01:59:01.705Z,4.93
2023-03-16T02:00:20.519Z,4.97
2023-03-16T02:01:00.638Z,4.60
2023-03-16T02:01:40.423Z,4.57
2023-03-16T02:02:34.982Z,4.77
2023-03-16T02:03:20.869Z,4.77
2023-03-16T02:04:19.451Z,5.37
2023-03-16T02:05:12.753Z,5.43
2023-03-16T02:05:59.081Z,5.20
2023-03-16T02:08:58.861Z,4.90
2023-03-16T02:10:03.170Z,4.67
2023-03-16T02:10:42.561Z,4.83
2023-03-16T02:11:25.938Z,5.00
2023-03-16T02:12:30.091Z,5.63
2023-03-16T02:14:49.598Z,5.27
2023-03-16T02:15:30.260Z,5.17
2023-03-16T02:16:10.222Z,4.93
2023-03-16T02:17:34.823Z,5.13
2023-03-16T02:18:17.326Z,5.17
2023-03-16T02:18:58.711Z,4.73
2023-03-16T02:20:35.187Z,5.00
2023-03-16T02:21:44.732Z,5.10
2023-03-16T02:22:25.613Z,4.90
2023-03-16T02:24:17.489Z,5.43
2023-03-16T02:25:23.680Z,4.87
2023-03-16T02:26:02.230Z,5.10
2023-03-16T02:27:23.321Z,5.50
2023-03-16T02:28:26.731Z,5.43
2023-03-16T02:29:34.227Z,5.13
2023-03-16T02:30:27.852Z,5.77
2023-03-16T02:31:07.335Z,5.07
2023-03-16T02:31:54.647Z,5.03
2023-03-16T02:33:42.905Z,5.20
2023-03-16T02:34:25.799Z,5.30
2023-03-16T02:35:07.219Z,5.23
2023-03-16T02:36:14.301Z,5.50
2023-03-16T02:36:55.181Z,5.53
2023-03-16T02:37:37.631Z,4.90
2023-03-16T02:38:19.642Z,4.80
2023-03-16T02:38:58.977Z,5.00
2023-03-16T02:39:44.182Z,5.23
2023-03-16T02:40:33.226Z,5.40
2023-03-16T02:41:17.577Z,5.43
2023-03-16T02:42:22.733Z,4.93
2023-03-16T02:44:10.844Z,5.13
2023-03-16T02:45:55.476Z,5.50
2023-03-16T02:48:03.604Z,4.77
2023-03-16T02:49:05.860Z,4.63
2023-03-16T02:51:05.880Z,4.93
2023-03-16T02:51:45.898Z,5.00
2023-03-16T02:53:14.672Z,4.53
2023-03-16T02:53:53.615Z,5.17
2023-03-16T02:54:42.584Z,4.57
2023-03-16T02:55:31.540Z,5.47
2023-03-16T02:56:35.206Z,4.80
2023-03-16T02:57:14.229Z,4.73
2023-03-16T02:57:54.637Z,4.60
2023-03-16T02:58:51.605Z,5.13
2023-03-16T02:59:33.554Z,5.17
2023-03-16T03:00:30.099Z,4.60
2023-03-16T03:01:12.710Z,5.00
2023-03-16T03:01:54.914Z,5.27
2023-03-16T03:03:06.085Z,4.33
2023-03-16T03:05:27.418Z,4.80
2023-03-16T03:06:08.703Z,5.30
2023-03-16T03:07:37.410Z,5.40
2023-03-16T03:08:29.587Z,4.67
2023-03-16T03:09:11.992Z,5.13
2023-03-16T03:10:17.582Z,5.07
2023-03-16T03:11:38.319Z,4.83
2023-03-16T03:12:27.652Z,4.53
2023-03-16T03:13:32.223Z,4.57
2023-03-16T03:16:01.796Z,5.03
2023-03-16T03:16:53.599Z,5.13
2023-03-16T03:17:37.572Z,4.80
2023-03-16T03:18:19.769Z,4.83
2023-03-16T03:19:23.530Z,4.83
2023-03-16T03:21:41.302Z,4.73
2023-03-16T03:22:46.417Z,4.87
2023-03-16T03:23:35.698Z,5.03
2023-03-16T03:24:18.816Z,5.00
2023-03-16T03:25:00.656Z,4.87
2023-03-16T03:25:45.594Z,4.87
2023-03-16T03:26:49.241Z,4.63
2023-03-16T03:28:47.017Z,5.20
2023-03-16T03:29:34.619Z,4.77
2023-03-16T03:30:20.367Z,4.87
2023-03-16T03:31:01.876Z,5.20
2023-03-16T03:32:05.350Z,4.57
2023-03-16T03:33:38.596Z,4.77
2023-03-16T03:34:31.468Z,4.90
2023-03-16T03:35:32.240Z,4.57
2023-03-16T03:36:22.394Z,5.13
2023-03-16T03:37:01.656Z,4.80
2023-03-16T03:37:46.805Z,4.57
2023-03-16T03:38:33.764Z,4.50
2023-03-16T03:39:12.800Z,4.87
2023-03-16T03:39:54.795Z,5.37
2023-03-16T03:40:33.708Z,4.97
2023-03-16T03:41:37.070Z,4.87
2023-03-16T03:43:01.743Z,4.57
2023-03-16T03:43:44.343Z,4.90
2023-03-16T03:44:27.168Z,4.90
2023-03-16T03:45:13.301Z,4.47
2023-03-16T03:46:02.476Z,4.50
2023-03-16T03:46:41.391Z,5.07
2023-03-16T03:47:23.699Z,5.17
2023-03-16T03:48:03.045Z,5.07
2023-03-16T03:48:43.649Z,4.97
2023-03-16T03:49:47.214Z,5.20
2023-03-16T03:51:47.239Z,4.93
2023-03-16T03:52:29.233Z,4.90
2023-03-16T03:53:11.817Z,5.10
2023-03-16T03:56:14.453Z,4.83
2023-03-16T03:56:54.596Z,4.73
2023-03-16T03:57:38.102Z,5.10
2023-03-16T03:59:19.358Z,4.33
2023-03-16T04:00:00.140Z,4.97
2023-03-16T04:00:43.424Z,5.10
2023-03-16T04:02:43.579Z,5.03
2023-03-16T04:03:23.813Z,4.73
2023-03-16T04:04:18.250Z,4.80
2023-03-16T04:06:20.647Z,4.63
2023-03-16T04:08:06.860Z,4.90
2023-03-16T04:08:55.639Z,4.77
2023-03-16T04:09:50.606Z,5.23
2023-03-16T04:10:32.633Z,4.50
2023-03-16T04:11:36.342Z,4.73
2023-03-16T04:13:34.892Z,4.67
2023-03-16T04:14:21.298Z,4.57
2023-03-16T04:15:01.459Z,4.37
2023-03-16T04:15:41.845Z,4.30
2023-03-16T04:17:52.969Z,4.73
2023-03-16T04:19:01.252Z,4.77
2023-03-16T04:19:41.658Z,4.67
2023-03-16T04:20:44.812Z,4.80
2023-03-16T04:21:26.718Z,5.33
2023-03-16T04:22:47.575Z,5.17
2023-03-16T04:24:07.957Z,5.10
2023-03-16T04:25:11.694Z,4.93
2023-03-16T04:27:12.710Z,4.93
2023-03-16T04:27:53.747Z,4.60
2023-03-16T04:28:57.374Z,4.73
2023-03-16T04:29:39.205Z,4.40
2023-03-16T04:30:19.703Z,5.00
2023-03-16T04:32:17.992Z,5.23
2023-03-16T04:33:44.606Z,5.30
2023-03-16T04:34:25.197Z,4.97
2023-03-16T04:35:06.381Z,5.17
2023-03-16T04:36:33.424Z,5.07
2023-03-16T04:37:14.792Z,5.07
2023-03-16T04:40:30.522Z,4.97
2023-03-16T04:41:10.267Z,4.67
2023-03-16T04:41:49.872Z,4.87
2023-03-16T04:43:10.709Z,5.07
2023-03-16T04:43:58.709Z,4.90
2023-03-16T04:44:44.551Z,5.27
2023-03-16T04:45:32.502Z,5.23
2023-03-16T04:46:19.600Z,5.37
2023-03-16T04:47:50.536Z,5.20
2023-03-16T04:48:32.459Z,4.97
2023-03-16T04:49:11.954Z,4.97
2023-03-16T04:50:15.149Z,4.83
2023-03-16T04:50:55.292Z,5.43
2023-03-16T04:51:42.802Z,5.37
2023-03-16T04:52:24.688Z,5.90
2023-03-16T04:53:04.738Z,6.00
2023-03-16T04:53:44.886Z,5.93
2023-03-16T04:54:26.673Z,6.03
2023-03-16T04:55:06.188Z,5.93
2023-03-16T04:55:47.049Z,5.40
2023-03-16T04:56:27.165Z,5.90
2023-03-16T04:57:06.317Z,6.03
2023-03-16T04:58:10.161Z,5.57
2023-03-16T04:59:28.938Z,5.70
2023-03-16T05:00:16.033Z,5.67
2023-03-16T05:00:56.055Z,5.83
2023-03-16T05:01:43.831Z,5.93
2023-03-16T05:02:32.258Z,6.10
2023-03-16T05:04:39.566Z,5.87
2023-03-16T05:05:22.337Z,5.97
2023-03-16T05:06:14.504Z,5.80
2023-03-16T05:07:01.882Z,6.27
2023-03-16T05:07:41.269Z,6.17
2023-03-16T05:09:14.444Z,6.23
2023-03-16T05:09:58.075Z,6.40
2023-03-16T05:11:38.563Z,6.83
2023-03-16T05:12:19.127Z,7.43
2023-03-16T05:13:45.549Z,7.10
2023-03-16T05:14:35.052Z,6.67
2023-03-16T05:16:01.989Z,6.53
2023-03-16T05:16:44.761Z,6.60
2023-03-16T05:17:33.783Z,6.93
2023-03-16T05:18:17.152Z,6.80
2023-03-16T05:20:42.597Z,6.67
2023-03-16T05:22:10.163Z,6.63
2023-03-16T05:22:51.217Z,6.37
2023-03-16T05:23:30.781Z,6.80
2023-03-16T05:24:17.605Z,6.77
2023-03-16T05:25:05.633Z,7.40
2023-03-16T05:25:47.200Z,6.97
2023-03-16T05:26:27.954Z,6.63
2023-03-16T05:27:09.792Z,7.00
2023-03-16T05:27:57.539Z,6.77
2023-03-16T05:29:02.058Z,6.57
2023-03-16T05:29:46.238Z,7.70
2023-03-16T05:30:33.611Z,7.90
2023-03-16T05:31:20.668Z,7.90
2023-03-16T05:32:02.982Z,8.20
2023-03-16T05:32:46.701Z,8.77
2023-03-16T05:33:29.800Z,8.03
2023-03-16T05:34:09.828Z,8.67
2023-03-16T05:35:28.218Z,8.17
2023-03-16T05:36:08.192Z,8.53
2023-03-16T05:36:50.139Z,8.77
2023-03-16T05:37:33.868Z,8.43
2023-03-16T05:38:13.192Z,8.97
2023-03-16T05:38:52.869Z,8.90
2023-03-16T05:39:41.512Z,8.53
2023-03-16T05:40:23.771Z,8.63
2023-03-16T05:41:09.531Z,8.77
2023-03-16T05:42:13.735Z,8.67
2023-03-16T05:43:41.462Z,8.43
2023-03-16T05:44:24.868Z,7.73
2023-03-16T05:45:07.278Z,8.57
2023-03-16T05:45:47.340Z,9.50
2023-03-16T05:48:02.583Z,8.63
2023-03-16T05:49:35.413Z,9.20
2023-03-16T05:50:29.031Z,9.80
2023-03-16T05:51:08.740Z,8.87
2023-03-16T05:51:50.753Z,9.17
2023-03-16T05:52:29.740Z,9.50
2023-03-16T05:53:33.334Z,10.00
2023-03-16T05:54:57.028Z,9.63
2023-03-16T05:55:36.415Z,9.30
2023-03-16T05:58:25.674Z,10.37
2023-03-16T05:59:04.920Z,10.47
2023-03-16T05:59:44.668Z,10.03
2023-03-16T06:00:32.038Z,10.37
2023-03-16T06:01:13.821Z,9.83
2023-03-16T06:02:17.134Z,9.90
2023-03-16T06:03:38.126Z,9.93
2023-03-16T06:05:39.330Z,10.40
2023-03-16T06:06:23.261Z,10.43
2023-03-16T06:07:03.098Z,10.17
2023-03-16T06:08:21.203Z,11.03
2023-03-16T06:09:01.473Z,10.63
2023-03-16T06:09:43.685Z,10.53
2023-03-16T06:10:27.000Z,10.80
2023-03-16T06:11:10.651Z,10.80
2023-03-16T06:12:13.885Z,10.80
2023-03-16T06:13:46.743Z,14.80
2023-03-16T06:14:25.733Z,12.07
2023-03-16T06:15:09.003Z,11.87
2023-03-16T06:16:14.907Z,11.67
2023-03-16T06:17:06.912Z,11.83
2023-03-16T06:18:11.289Z,11.50
2023-03-16T06:19:31.841Z,11.43
2023-03-16T06:20:18.931Z,10.73
2023-03-16T06:20:58.922Z,11.00
2023-03-16T06:21:40.309Z,11.60
2023-03-16T06:23:09.046Z,11.27
2023-03-16T06:23:47.772Z,10.97
2023-03-16T06:25:48.999Z,11.87
2023-03-16T06:26:27.501Z,11.70
2023-03-16T06:28:39.705Z,11.00
2023-03-16T06:29:20.183Z,10.77
2023-03-16T06:30:40.200Z,11.27
2023-03-16T06:32:24.431Z,11.37
2023-03-16T06:33:07.437Z,10.20
2023-03-16T06:35:16.328Z,10.70
2023-03-16T06:35:56.757Z,11.07
2023-03-16T06:37:15.015Z,11.73
2023-03-16T06:38:41.537Z,11.43
2023-03-16T06:39:44.960Z,11.53
2023-03-16T06:42:13.698Z,11.80
2023-03-16T06:43:17.289Z,12.03
2023-03-16T06:44:01.397Z,11.03
2023-03-16T06:46:03.325Z,11.10
2023-03-16T06:46:42.353Z,11.83
2023-03-16T06:47:25.709Z,12.47
2023-03-16T06:48:42.557Z,11.47
2023-03-16T06:49:47.109Z,11.33
2023-03-16T06:50:54.260Z,12.23
2023-03-16T06:51:33.523Z,12.17
2023-03-16T06:52:16.845Z,12.23
2023-03-16T06:52:59.507Z,12.20
2023-03-16T06:55:07.013Z,12.60
2023-03-16T06:56:28.246Z,13.73
2023-03-16T06:57:23.091Z,12.73
2023-03-16T06:58:05.609Z,11.73
2023-03-16T06:58:45.046Z,11.90
2023-03-16T06:59:36.492Z,12.10
2023-03-16T07:00:27.533Z,12.77
2023-03-16T07:01:15.782Z,12.17
2023-03-16T07:02:08.164Z,12.33
2023-03-16T07:02:55.336Z,12.73
2023-03-16T07:03:35.273Z,12.77
2023-03-16T07:04:39.980Z,13.37
2023-03-16T07:06:00.412Z,12.63
2023-03-16T07:09:44.147Z,12.37
2023-03-16T07:11:47.663Z,12.87
2023-03-16T07:17:23.682Z,12.73
2023-03-16T07:18:04.623Z,12.50
2023-03-16T07:20:32.913Z,13.47
2023-03-16T07:21:14.487Z,13.00
2023-03-16T07:22:18.638Z,12.67
2023-03-16T07:23:22.749Z,12.70
2023-03-16T07:24:02.700Z,12.67
2023-03-16T07:24:57.574Z,12.30
2023-03-16T07:27:27.523Z,13.67
2023-03-16T07:29:47.000Z,13.67
2023-03-16T07:30:27.802Z,14.17
2023-03-16T07:32:41.848Z,13.10
2023-03-16T07:33:47.962Z,11.80
2023-03-16T07:36:11.998Z,12.17
2023-03-16T07:38:13.772Z,13.87
2023-03-16T07:39:03.159Z,13.30
2023-03-16T07:39:50.300Z,13.70
2023-03-16T07:40:31.092Z,12.50
2023-03-16T07:41:35.065Z,12.33
2023-03-16T07:44:26.085Z,12.37
2023-03-16T07:45:31.128Z,13.47
2023-03-16T07:46:17.738Z,12.03
2023-03-16T07:47:07.632Z,12.47
2023-03-16T07:48:45.628Z,11.97
2023-03-16T07:49:37.446Z,11.87
2023-03-16T07:50:30.209Z,13.43
2023-03-16T07:51:33.937Z,12.67
2023-03-16T07:52:15.139Z,13.93
2023-03-16T07:53:52.496Z,13.43
2023-03-16T07:54:33.786Z,13.10
2023-03-16T07:56:52.529Z,13.27
2023-03-16T07:58:12.376Z,13.33
2023-03-16T07:58:51.630Z,12.93
2023-03-16T07:59:32.097Z,13.03
2023-03-16T08:00:14.351Z,12.37
2023-03-16T08:01:10.677Z,12.70
2023-03-16T08:01:56.938Z,13.00
2023-03-16T08:02:39.217Z,13.33
2023-03-16T08:04:12.360Z,12.33
2023-03-16T08:04:54.590Z,12.47
2023-03-16T08:05:47.435Z,12.43
2023-03-16T08:06:28.466Z,11.60
2023-03-16T08:07:16.774Z,11.73
2023-03-16T08:08:22.532Z,13.00
2023-03-16T08:10:25.023Z,12.50
2023-03-16T08:11:43.651Z,12.90
2023-03-16T08:12:22.857Z,12.93
2023-03-16T08:13:27.477Z,13.13
2023-03-16T08:14:06.335Z,12.93
2023-03-16T08:14:46.584Z,12.23
2023-03-16T08:15:29.555Z,12.00
2023-03-16T08:16:13.633Z,12.93
2023-03-16T08:16:55.105Z,12.67
2023-03-16T08:17:37.923Z,12.70
2023-03-16T08:18:23.971Z,12.70
2023-03-16T08:19:04.788Z,12.57
2023-03-16T08:21:22.791Z,12.47
2023-03-16T08:22:06.644Z,12.53
2023-03-16T08:22:58.514Z,12.33
2023-03-16T08:23:49.721Z,12.57
2023-03-16T08:24:59.894Z,12.17
2023-03-16T08:26:29.086Z,12.07
2023-03-16T08:27:09.761Z,12.17
2023-03-16T08:28:02.518Z,12.60
2023-03-16T08:28:42.813Z,11.97
2023-03-16T08:29:23.647Z,12.13
2023-03-16T08:30:14.991Z,11.77
2023-03-16T08:31:00.240Z,12.30
2023-03-16T08:31:57.013Z,13.47
2023-03-16T08:32:41.422Z,11.70
2023-03-16T08:33:23.935Z,12.00
2023-03-16T08:34:08.568Z,12.10
2023-03-16T08:35:20.013Z,11.87
2023-03-16T08:35:52.549Z,11.53
2023-03-16T08:36:24.527Z,11.47
2023-03-16T08:41:41.518Z,12.33
2023-03-16T08:42:28.374Z,12.10
2023-03-16T08:43:12.606Z,11.93
2023-03-16T08:43:57.194Z,12.10
2023-03-16T08:45:21.038Z,12.57
2023-03-16T08:47:15.759Z,12.27
2023-03-16T08:48:14.125Z,12.73
2023-03-16T08:52:23.038Z,12.33
2023-03-16T08:53:03.572Z,12.87
2023-03-16T08:53:53.318Z,12.97
2023-03-16T08:55:01.463Z,13.07
2023-03-16T08:55:50.244Z,12.33
2023-03-16T08:56:47.998Z,12.27
2023-03-16T08:57:28.697Z,12.53
2023-03-16T08:58:33.168Z,12.40
2023-03-16T08:59:37.494Z,12.17
2023-03-16T09:00:47.090Z,12.37
2023-03-16T09:01:30.608Z,11.70
2023-03-16T09:03:02.091Z,11.93
2023-03-16T09:04:22.559Z,12.60
2023-03-16T09:05:16.705Z,12.90
2023-03-16T09:06:11.141Z,12.80
2023-03-16T09:07:19.876Z,13.00
2023-03-16T09:09:04.896Z,12.97
2023-03-16T09:09:44.103Z,12.80
2023-03-16T09:10:33.326Z,13.27
2023-03-16T09:11:40.925Z,13.60
2023-03-16T09:13:41.380Z,12.60
2023-03-16T09:14:23.896Z,13.53
2023-03-16T09:15:06.318Z,12.43
2023-03-16T09:16:12.297Z,11.17
2023-03-16T09:16:53.633Z,13.13
2023-03-16T09:17:58.204Z,11.87
2023-03-16T09:20:05.527Z,12.73
2023-03-16T09:21:02.912Z,12.27
2023-03-16T09:22:10.910Z,13.20
2023-03-16T09:24:07.961Z,13.47
2023-03-16T09:25:12.321Z,12.53
2023-03-16T09:26:53.432Z,11.87
2023-03-16T09:27:43.470Z,12.23
2023-03-16T09:29:43.408Z,12.23
2023-03-16T09:30:23.711Z,12.27
2023-03-16T09:31:19.097Z,12.17
2023-03-16T09:33:45.335Z,12.77
2023-03-16T09:38:26.664Z,11.93
2023-03-16T09:39:44.549Z,11.93
2023-03-16T09:40:32.146Z,11.83
2023-03-16T09:49:18.164Z,10.53
2023-03-16T09:50:49.339Z,10.97
2023-03-16T09:51:53.172Z,11.30
2023-03-16T09:53:57.671Z,11.37
2023-03-16T09:54:45.415Z,10.37
2023-03-16T09:56:37.485Z,10.73
2023-03-16T09:57:58.908Z,11.27
2023-03-16T10:00:49.113Z,10.67
2023-03-16T10:04:09.701Z,10.57
2023-03-16T10:05:09.413Z,10.60
2023-03-16T10:06:04.201Z,10.63
2023-03-16T10:07:54.225Z,10.60
2023-03-16T10:10:08.582Z,9.57
2023-03-16T10:10:48.154Z,10.63
2023-03-16T10:11:41.370Z,10.67
2023-03-16T10:13:01.822Z,11.03
2023-03-16T10:13:48.051Z,10.63
2023-03-16T10:14:34.219Z,10.43
2023-03-16T10:15:27.385Z,10.53
2023-03-16T10:16:45.338Z,10.53
2023-03-16T10:18:02.889Z,10.70
2023-03-16T10:23:49.998Z,9.23
2023-03-16T10:29:43.724Z,9.83
2023-03-16T10:32:13.804Z,8.83
2023-03-16T10:32:53.430Z,8.60
2023-03-16T10:33:39.975Z,9.07
2023-03-16T10:35:15.545Z,9.07
2023-03-16T10:36:21.572Z,9.47
2023-03-16T10:37:33.037Z,8.90
2023-03-16T10:39:43.544Z,9.53
2023-03-16T10:40:23.574Z,9.57
2023-03-16T10:41:31.546Z,9.10
2023-03-16T10:46:36.174Z,9.00
2023-03-16T10:47:30.362Z,9.03
2023-03-16T10:48:23.413Z,9.10
2023-03-16T10:49:27.373Z,8.97
2023-03-16T10:50:20.951Z,8.33
2023-03-16T10:51:12.264Z,9.13
2023-03-16T10:53:39.215Z,7.90
2023-03-16T10:54:22.437Z,7.80
2023-03-16T10:57:21.237Z,8.23
2023-03-16T10:59:42.218Z,8.83
2023-03-16T11:03:26.316Z,9.20
2023-03-16T11:04:19.118Z,9.40
2023-03-16T11:05:31.499Z,9.40
2023-03-16T11:06:31.162Z,8.93
2023-03-16T11:07:30.541Z,8.80
2023-03-16T11:08:32.932Z,8.77
2023-03-16T11:09:39.641Z,8.93
2023-03-16T11:10:32.332Z,8.47
2023-03-16T11:13:51.618Z,8.87
2023-03-16T11:14:45.005Z,9.07
2023-03-16T11:15:46.554Z,9.07
2023-03-16T11:16:48.083Z,9.37
2023-03-16T11:20:22.282Z,9.33
2023-03-16T11:21:41.282Z,10.20
2023-03-16T11:23:39.213Z,10.13
2023-03-16T11:24:27.249Z,9.13
2023-03-16T11:25:31.117Z,9.33
2023-03-16T11:26:14.197Z,8.87
2023-03-16T11:27:00.352Z,8.80
2023-03-16T11:27:40.753Z,8.17
2023-03-16T11:28:41.902Z,9.33
2023-03-16T11:29:41.803Z,8.77
2023-03-16T11:30:47.788Z,9.03
2023-03-16T11:31:28.511Z,8.37
2023-03-16T11:32:19.209Z,8.57
2023-03-16T11:33:09.882Z,8.80
2023-03-16T11:33:57.676Z,8.93
2023-03-16T11:34:57.101Z,8.43
2023-03-16T11:36:17.773Z,8.30
2023-03-16T11:38:07.564Z,8.90
2023-03-16T11:39:17.026Z,9.13
2023-03-16T11:40:20.637Z,9.27
2023-03-16T11:41:21.370Z,8.70
2023-03-16T11:42:02.835Z,8.43
2023-03-16T11:42:42.681Z,8.30
2023-03-16T11:43:43.046Z,9.00
2023-03-16T11:44:34.669Z,8.67
2023-03-16T11:45:33.506Z,7.93
2023-03-16T11:46:42.859Z,7.93
2023-03-16T11:49:26.610Z,7.57
2023-03-16T11:50:46.363Z,7.60
2023-03-16T11:51:42.327Z,7.20
2023-03-16T11:53:09.532Z,7.60
2023-03-16T11:55:30.063Z,7.93
2023-03-16T11:56:24.384Z,7.70
2023-03-16T11:57:14.417Z,7.40
2023-03-16T11:58:31.811Z,7.10
2023-03-16T12:00:01.227Z,8.37
2023-03-16T12:02:23.390Z,6.43
2023-03-16T12:05:23.968Z,7.20
2023-03-16T12:06:38.725Z,7.63
2023-03-16T12:07:41.238Z,7.83
2023-03-16T12:08:42.450Z,7.53
2023-03-16T12:09:47.616Z,6.87
2023-03-16T12:10:46.874Z,6.37
2023-03-16T12:11:34.222Z,6.07
2023-03-16T12:12:43.190Z,7.07
2023-03-16T12:14:55.571Z,7.57
2023-03-16T12:15:57.064Z,7.20
2023-03-16T12:17:14.947Z,7.27
2023-03-16T12:18:16.236Z,7.77
2023-03-16T12:19:28.823Z,7.67
2023-03-16T12:20:15.543Z,8.00
2023-03-16T12:21:03.043Z,7.60
2023-03-16T12:21:48.777Z,7.47
2023-03-16T12:22:54.755Z,7.13
2023-03-16T12:24:04.743Z,7.60
2023-03-16T12:26:39.938Z,6.93
2023-03-16T12:29:20.316Z,6.67
2023-03-16T12:30:42.663Z,6.83
2023-03-16T12:33:21.575Z,8.07
2023-03-16T12:34:41.450Z,6.80
2023-03-16T12:37:18.953Z,7.10
2023-03-16T12:38:29.923Z,7.57
2023-03-16T12:39:39.880Z,6.67
2023-03-16T12:40:19.160Z,6.57
2023-03-16T12:41:17.872Z,6.23
2023-03-16T12:41:57.705Z,6.67
2023-03-16T12:43:02.896Z,6.53
2023-03-16T12:43:45.907Z,6.87
2023-03-16T12:44:40.117Z,6.70
2023-03-16T12:45:47.084Z,7.40
2023-03-16T12:46:30.526Z,7.03
2023-03-16T12:47:44.345Z,7.33
2023-03-16T12:49:09.094Z,7.13
2023-03-16T12:49:49.296Z,7.40
2023-03-16T12:50:29.937Z,7.60
2023-03-16T12:51:12.967Z,7.37
2023-03-16T12:52:01.765Z,7.13
2023-03-16T12:53:27.326Z,7.57
2023-03-16T12:54:27.274Z,7.80
2023-03-16T12:55:45.521Z,7.60
2023-03-16T12:56:48.339Z,7.47
2023-03-16T12:57:52.382Z,6.50
2023-03-16T12:58:31.693Z,6.67
2023-03-16T12:59:18.785Z,6.73
2023-03-16T13:00:10.282Z,6.23
2023-03-16T13:00:59.620Z,6.80
2023-03-16T13:03:21.209Z,6.70
2023-03-16T13:04:13.844Z,6.27
2023-03-16T13:05:12.242Z,6.23
2023-03-16T13:06:00.836Z,6.37
2023-03-16T13:06:45.986Z,6.17
2023-03-16T13:07:31.419Z,6.40
2023-03-16T13:08:16.102Z,6.13
2023-03-16T13:09:01.260Z,7.10
2023-03-16T13:10:15.202Z,6.87
2023-03-16T13:11:11.725Z,6.73
2023-03-16T13:13:25.564Z,6.27
2023-03-16T13:14:03.547Z,6.30
2023-03-16T13:14:46.113Z,6.33
2023-03-16T13:15:29.776Z,6.57
2023-03-16T13:18:15.376Z,5.93
2023-03-16T13:18:59.652Z,5.93
2023-03-16T13:19:45.178Z,6.67
2023-03-16T13:22:04.306Z,6.40
2023-03-16T13:22:44.618Z,6.33
2023-03-16T13:23:28.971Z,6.20
2023-03-16T13:24:28.714Z,5.57
2023-03-16T13:25:34.195Z,6.53
2023-03-16T13:26:43.398Z,6.43
2023-03-16T13:28:39.082Z,6.17
2023-03-16T13:30:21.478Z,5.57
2023-03-16T13:31:00.496Z,5.80
2023-03-16T13:31:50.576Z,6.03
2023-03-16T13:32:33.508Z,5.57
2023-03-16T13:33:23.517Z,5.83
2023-03-16T13:34:03.993Z,5.87
2023-03-16T13:34:53.682Z,6.17
2023-03-16T13:36:01.257Z,5.77
2023-03-16T13:37:49.473Z,6.63
2023-03-16T13:39:59.840Z,6.40
2023-03-16T13:40:49.813Z,6.27
2023-03-16T13:41:38.717Z,6.10
2023-03-16T13:42:23.571Z,5.47
2023-03-16T13:43:17.641Z,5.47
2023-03-16T13:43:56.921Z,5.67
2023-03-16T13:44:45.475Z,5.73
2023-03-16T13:45:33.157Z,5.70
2023-03-16T13:46:31.402Z,5.50
2023-03-16T13:47:51.240Z,5.67
2023-03-16T13:48:43.360Z,6.13
2023-03-16T13:49:25.529Z,6.40
2023-03-16T13:50:13.724Z,6.23
2023-03-16T13:50:59.125Z,5.27
2023-03-16T13:51:46.452Z,5.80
2023-03-16T13:52:30.032Z,5.67
2023-03-16T13:53:17.308Z,6.57
2023-03-16T13:54:18.707Z,6.23
2023-03-16T13:55:00.198Z,6.23
2023-03-16T13:55:48.036Z,5.90
2023-03-16T13:56:30.306Z,5.23
2023-03-16T13:57:18.785Z,5.50
2023-03-16T13:58:00.480Z,5.63
2023-03-16T13:58:46.033Z,5.33
2023-03-16T14:01:56.303Z,6.10
2023-03-16T14:03:04.408Z,6.03
2023-03-16T14:04:31.187Z,6.13
2023-03-16T14:05:34.950Z,5.67
2023-03-16T14:06:14.413Z,5.57
2023-03-16T14:07:02.007Z,6.50
2023-03-16T14:08:24.231Z,5.37
2023-03-16T14:09:41.905Z,5.63
2023-03-16T14:10:24.847Z,5.60
2023-03-16T14:11:05.747Z,5.63
2023-03-16T14:11:48.704Z,6.33
2023-03-16T14:12:37.901Z,6.20
2023-03-16T14:13:31.481Z,6.07
2023-03-16T14:15:17.405Z,5.43
2023-03-16T14:16:06.472Z,5.20
2023-03-16T14:18:21.592Z,6.07
2023-03-16T14:20:45.838Z,6.60
2023-03-16T14:21:25.174Z,6.33
2023-03-16T14:22:05.433Z,5.70
2023-03-16T14:22:50.827Z,6.70
2023-03-16T14:23:38.093Z,7.07
2023-03-16T14:24:35.362Z,6.87
2023-03-16T14:25:39.853Z,6.47
2023-03-16T14:27:21.930Z,6.53
2023-03-16T14:28:04.435Z,6.07
2023-03-16T14:29:12.114Z,6.07